Relatórios de METAR próximas

 

LPAR - Alverca, Portugal
Distance from station: S 38km
Actualizado: 20/09/2019 17:00
NÃO Actual
Parc. Nublado
Parc. Nublado
 Vento de SO
Vento: SO 20 km/h
Temperatura: 23°C
Ponto de Orvalho: 15°C
Humidade: 61%
Barómetro: 1012 hPa
Nuvens: Parc. Nublado
Visibilidade: 10 km
Cloud details: Few Clouds 762 m
Parc. Nublado 1067 m
2019/09/20 16:00 LPAR 201600Z 22011KT 9999 FEW025 SCT035 23/15 Q1012
LPPT - Lisbon/Portela, Portugal
Distance from station: S 52km
Actualizado: 22/09/2019 16:30
Few Clouds
Few Clouds
 Vento de ONO
Vento: ONO 11 km/h
Temperatura: 22°C
Ponto de Orvalho: 12°C
Humidade: 53%
Barómetro: 1018 hPa
Nuvens: Few Clouds
Visibilidade: 10 km
Cloud details: Few Clouds 1097 m
2019/09/22 15:30 LPPT 221530Z 29006KT 260V330 9999 FEW036 22/12 Q1018
 
LPST - Sintra/Granja (a, Portugal
Distance from station: SSO 53km
Actualizado: 19/09/2019 17:00
NÃO Actual
Few Clouds
Few Clouds
 Vento de NNO
Vento: NNO 17 km/h
Temperatura: 21°C
Ponto de Orvalho: 15°C
Humidade: 69%
Barómetro: 1016 hPa
Nuvens: Few Clouds
Visibilidade: 10 km
Cloud details: Few Clouds 792 m
2019/09/19 16:00 LPST 191600Z 33009KT 300V360 9999 FEW026 21/15 Q1016
LPMT - Montijo (por-Afb, Portugal
Distance from station: S 59km
Actualizado: 22/09/2019 17:00
Few Clouds
Few Clouds
 Vento de NO
Vento: NO 13 km/h
Temperatura: 24°C
Ponto de Orvalho: 11°C
Humidade: 44%
Barómetro: 1017 hPa
Nuvens: Few Clouds
Visibilidade: 10 km
Cloud details: Few Clouds 1067 m
2019/09/22 16:00 LPMT 221600Z 32007KT 280V350 9999 FEW035 24/11 Q1017
 
LPCS - Cascais, Portugal
Distance from station: SSO 63km
Actualizado: 22/09/2019 17:00
Few Clouds
Few Clouds
 Vento de NO
Vento: NO 19 km/h
Temperatura: 21°C
Ponto de Orvalho: 12°C
Humidade: 57%
Barómetro: 1018 hPa
Nuvens: Few Clouds
Visibilidade: 10 km
Cloud details: Few Clouds 762 m
2019/09/22 16:00 LPCS 221600Z 31010KT 9999 FEW025 21/12 Q1018
LPMR - Monte Real(Por-A, Portugal
Distance from station: N 67km
Actualizado: 16/09/2019 19:00
NÃO Actual
Céu Limpo
Céu Limpo
 Vento de ONO
Vento: ONO 7 km/h
Temperatura: 20°C
Ponto de Orvalho: 17°C
Humidade: 83%
Barómetro: 1017 hPa
Resumo: Céu Limpo
Visibilidade: greater than 10 km
2019/09/16 18:00 LPMR 161800Z 29004KT 250V320 CAVOK 20/17 Q1017